createdAt,value
2023-05-10T00:00:04.350Z,94264.00
2023-05-10T00:01:04.388Z,94264.00
2023-05-10T00:02:04.457Z,94266.00
2023-05-10T00:03:04.444Z,94264.00
2023-05-10T00:04:04.452Z,94262.00
2023-05-10T00:05:04.446Z,94260.00
2023-05-10T00:06:04.492Z,94262.00
2023-05-10T00:07:04.584Z,94260.00
2023-05-10T00:08:04.586Z,94258.00
2023-05-10T00:09:04.619Z,94260.00
2023-05-10T00:10:04.642Z,94260.00
2023-05-10T00:11:04.699Z,94262.00
2023-05-10T00:12:04.708Z,94262.00
2023-05-10T00:13:04.742Z,94264.00
2023-05-10T00:14:04.746Z,94264.00
2023-05-10T00:15:04.832Z,94264.00
2023-05-10T00:16:04.880Z,94262.00
2023-05-10T00:17:04.860Z,94264.00
2023-05-10T00:18:04.918Z,94262.00
2023-05-10T00:19:04.903Z,94262.00
2023-05-10T00:20:04.945Z,94260.00
2023-05-10T00:21:05.034Z,94262.00
2023-05-10T00:22:05.027Z,94262.00
2023-05-10T00:23:05.125Z,94262.00
2023-05-10T00:24:05.108Z,94262.00
2023-05-10T00:25:05.148Z,94262.00
2023-05-10T00:26:05.177Z,94262.00
2023-05-10T00:27:05.212Z,94264.00
2023-05-10T00:28:05.237Z,94264.00
2023-05-10T00:29:05.286Z,94260.00
2023-05-10T00:30:05.353Z,94260.00
2023-05-10T00:31:05.364Z,94262.00
2023-05-10T00:32:05.436Z,94262.00
2023-05-10T00:33:05.517Z,94264.00
2023-05-10T00:34:05.480Z,94266.00
2023-05-10T00:35:05.526Z,94262.00
2023-05-10T00:36:05.592Z,94266.00
2023-05-10T00:37:05.566Z,94268.00
2023-05-10T00:38:05.617Z,94270.00
2023-05-10T00:39:05.665Z,94268.00
2023-05-10T00:40:05.713Z,94268.00
2023-05-10T00:41:05.771Z,94268.00
2023-05-10T00:42:05.786Z,94272.00
2023-05-10T00:43:05.862Z,94270.00
2023-05-10T00:44:05.912Z,94270.00
2023-05-10T00:45:05.904Z,94270.00
2023-05-10T00:46:06.001Z,94272.00
2023-05-10T00:47:06.004Z,94272.00
2023-05-10T00:48:06.118Z,94270.00
2023-05-10T00:49:06.099Z,94273.00
2023-05-10T00:50:06.137Z,94273.00
2023-05-10T00:51:06.183Z,94273.00
2023-05-10T00:52:06.216Z,94273.00
2023-05-10T00:53:06.219Z,94273.00
2023-05-10T00:54:06.282Z,94273.00
2023-05-10T00:55:06.363Z,94273.00
2023-05-10T00:56:06.379Z,94275.00
2023-05-10T00:57:06.409Z,94273.00
2023-05-10T00:58:06.461Z,94273.00
2023-05-10T00:59:06.472Z,94272.00
2023-05-10T01:00:06.531Z,94273.00
2023-05-10T01:01:06.670Z,94272.00
2023-05-10T01:02:06.611Z,94273.00
2023-05-10T01:03:06.725Z,94272.00
2023-05-10T01:04:06.654Z,94273.00
2023-05-10T01:05:06.752Z,94272.00
2023-05-10T01:06:06.755Z,94273.00
2023-05-10T01:07:06.832Z,94272.00
2023-05-10T01:08:06.843Z,94272.00
2023-05-10T01:09:06.959Z,94272.00
2023-05-10T01:10:06.922Z,94273.00
2023-05-10T01:11:06.973Z,94273.00
2023-05-10T01:12:07.035Z,94275.00
2023-05-10T01:13:07.019Z,94275.00
2023-05-10T01:14:07.087Z,94277.00
2023-05-10T01:15:07.103Z,94275.00
2023-05-10T01:16:07.188Z,94272.00
2023-05-10T01:17:07.216Z,94272.00
2023-05-10T01:18:07.213Z,94272.00
2023-05-10T01:19:07.260Z,94270.00
2023-05-10T01:20:07.340Z,94272.00
2023-05-10T01:21:07.398Z,94272.00
2023-05-10T01:22:07.389Z,94272.00
2023-05-10T01:23:07.459Z,94272.00
2023-05-10T01:24:07.504Z,94270.00
2023-05-10T01:25:07.506Z,94270.00
2023-05-10T01:26:07.578Z,94270.00
2023-05-10T01:27:07.622Z,94268.00
2023-05-10T01:28:07.673Z,94268.00
2023-05-10T01:29:07.718Z,94268.00
2023-05-10T01:30:15.681Z,94268.00
2023-05-10T01:31:08.800Z,94266.00
2023-05-10T01:32:07.736Z,94268.00
2023-05-10T01:33:07.703Z,94264.00
2023-05-10T01:34:07.738Z,94268.00
2023-05-10T01:35:07.721Z,94268.00
2023-05-10T01:36:07.727Z,94268.00
2023-05-10T01:37:07.688Z,94266.00
2023-05-10T01:38:07.713Z,94264.00
2023-05-10T01:39:07.680Z,94264.00
2023-05-10T01:40:07.652Z,94266.00
2023-05-10T01:41:07.700Z,94266.00
2023-05-10T01:42:07.656Z,94268.00
2023-05-10T01:43:07.660Z,94266.00
2023-05-10T01:44:07.707Z,94266.00
2023-05-10T01:45:07.791Z,94266.00
2023-05-10T01:46:07.781Z,94266.00
2023-05-10T01:47:07.827Z,94266.00
2023-05-10T01:48:07.981Z,94268.00
2023-05-10T01:49:07.910Z,94270.00
2023-05-10T01:50:07.916Z,94272.00
2023-05-10T01:51:08.004Z,94268.00
2023-05-10T01:52:08.076Z,94270.00
2023-05-10T01:53:08.133Z,94272.00
2023-05-10T01:54:08.110Z,94272.00
2023-05-10T01:55:08.194Z,94273.00
2023-05-10T01:56:08.261Z,94273.00
2023-05-10T01:57:08.308Z,94275.00
2023-05-10T01:58:08.306Z,94277.00
2023-05-10T01:59:08.544Z,94279.00
2023-05-10T02:00:08.386Z,94279.00
2023-05-10T02:01:08.464Z,94279.00
2023-05-10T02:02:08.471Z,94281.00
2023-05-10T02:03:08.675Z,94281.00
2023-05-10T02:04:08.776Z,94283.00
2023-05-10T02:05:08.622Z,94285.00
2023-05-10T02:06:08.676Z,94287.00
2023-05-10T02:07:08.711Z,94285.00
2023-05-10T02:08:08.785Z,94287.00
2023-05-10T02:09:08.855Z,94287.00
2023-05-10T02:10:08.876Z,94287.00
2023-05-10T02:11:08.924Z,94287.00
2023-05-10T02:12:08.969Z,94289.00
2023-05-10T02:13:09.169Z,94289.00
2023-05-10T02:14:09.055Z,94291.00
2023-05-10T02:15:09.083Z,94291.00
2023-05-10T02:16:09.187Z,94293.00
2023-05-10T02:17:09.186Z,94293.00
2023-05-10T02:18:09.274Z,94293.00
2023-05-10T02:19:09.305Z,94295.00
2023-05-10T02:20:09.375Z,94295.00
2023-05-10T02:21:09.401Z,94295.00
2023-05-10T02:22:09.477Z,94299.00
2023-05-10T02:23:09.501Z,94295.00
2023-05-10T02:24:09.598Z,94297.00
2023-05-10T02:25:09.745Z,94299.00
2023-05-10T02:26:09.624Z,94297.00
2023-05-10T02:27:09.704Z,94297.00
2023-05-10T02:28:09.757Z,94299.00
2023-05-10T02:29:09.823Z,94297.00
2023-05-10T02:30:09.876Z,94301.00
2023-05-10T02:31:09.878Z,94303.00
2023-05-10T02:32:10.013Z,94301.00
2023-05-10T02:33:09.980Z,94301.00
2023-05-10T02:34:10.019Z,94301.00
2023-05-10T02:35:10.064Z,94301.00
2023-05-10T02:36:10.138Z,94303.00
2023-05-10T02:37:10.249Z,94305.00
2023-05-10T02:38:10.306Z,94307.00
2023-05-10T02:39:10.292Z,94307.00
2023-05-10T02:40:10.408Z,94307.00
2023-05-10T02:41:10.413Z,94307.00
2023-05-10T02:42:10.472Z,94303.00
2023-05-10T02:43:10.504Z,94305.00
2023-05-10T02:44:10.587Z,94305.00
2023-05-10T02:45:10.651Z,94307.00
2023-05-10T02:46:10.765Z,94305.00
2023-05-10T02:47:10.734Z,94307.00
2023-05-10T02:48:10.848Z,94305.00
2023-05-10T02:49:10.816Z,94307.00
2023-05-10T02:50:10.886Z,94305.00
2023-05-10T02:51:10.940Z,94307.00
2023-05-10T02:52:10.985Z,94309.00
2023-05-10T02:53:11.059Z,94307.00
2023-05-10T02:54:11.091Z,94311.00
2023-05-10T02:55:11.167Z,94305.00
2023-05-10T02:56:11.178Z,94307.00
2023-05-10T02:57:11.285Z,94309.00
2023-05-10T02:58:11.285Z,94309.00
2023-05-10T02:59:11.324Z,94309.00
2023-05-10T03:00:11.405Z,94311.00
2023-05-10T03:01:11.497Z,94311.00
2023-05-10T03:02:11.519Z,94309.00
2023-05-10T03:03:11.586Z,94313.00
2023-05-10T03:04:11.669Z,94307.00
2023-05-10T03:05:11.669Z,94313.00
2023-05-10T03:06:11.754Z,94313.00
2023-05-10T03:07:11.825Z,94307.00
2023-05-10T03:08:11.882Z,94309.00
2023-05-10T03:09:11.906Z,94309.00
2023-05-10T03:10:11.991Z,94307.00
2023-05-10T03:11:12.041Z,94305.00
2023-05-10T03:12:12.211Z,94305.00
2023-05-10T03:13:12.215Z,94305.00
2023-05-10T03:14:12.141Z,94309.00
2023-05-10T03:15:12.225Z,94307.00
2023-05-10T03:16:12.288Z,94309.00
2023-05-10T03:17:12.339Z,94311.00
2023-05-10T03:18:12.392Z,94309.00
2023-05-10T03:19:12.461Z,94311.00
2023-05-10T03:20:12.461Z,94311.00
2023-05-10T03:21:12.525Z,94313.00
2023-05-10T03:22:12.574Z,94313.00
2023-05-10T03:23:12.621Z,94313.00
2023-05-10T03:24:12.709Z,94315.00
2023-05-10T03:25:12.740Z,94317.00
2023-05-10T03:26:12.820Z,94317.00
2023-05-10T03:27:12.852Z,94319.00
2023-05-10T03:28:12.926Z,94319.00
2023-05-10T03:29:12.943Z,94321.00
2023-05-10T03:30:13.054Z,94321.00
2023-05-10T03:31:13.085Z,94321.00
2023-05-10T03:32:13.109Z,94323.00
2023-05-10T03:33:13.170Z,94323.00
2023-05-10T03:34:13.192Z,94323.00
2023-05-10T03:35:13.285Z,94323.00
2023-05-10T03:36:13.364Z,94323.00
2023-05-10T03:37:13.462Z,94323.00
2023-05-10T03:38:13.442Z,94323.00
2023-05-10T03:39:13.523Z,94321.00
2023-05-10T03:40:13.559Z,94323.00
2023-05-10T03:41:13.641Z,94326.00
2023-05-10T03:42:13.700Z,94326.00
2023-05-10T03:43:13.753Z,94326.00
2023-05-10T03:44:13.792Z,94326.00
2023-05-10T03:45:13.866Z,94328.00
2023-05-10T03:46:13.911Z,94330.00
2023-05-10T03:47:13.931Z,94330.00
2023-05-10T03:48:14.034Z,94332.00
2023-05-10T03:49:14.060Z,94330.00
2023-05-10T03:50:14.239Z,94334.00
2023-05-10T03:51:14.217Z,94336.00
2023-05-10T03:52:14.265Z,94336.00
2023-05-10T03:53:14.327Z,94338.00
2023-05-10T03:54:14.336Z,94336.00
2023-05-10T03:55:14.414Z,94340.00
2023-05-10T03:56:14.445Z,94340.00
2023-05-10T03:57:14.526Z,94340.00
2023-05-10T03:58:14.583Z,94340.00
2023-05-10T03:59:14.629Z,94342.00
2023-05-10T04:00:14.877Z,94340.00
2023-05-10T04:01:14.800Z,94340.00
2023-05-10T04:02:14.859Z,94360.00
2023-05-10T04:03:14.965Z,94366.00
2023-05-10T04:04:14.964Z,94362.00
2023-05-10T04:05:14.959Z,94362.00
2023-05-10T04:06:15.067Z,94364.00
2023-05-10T04:07:15.075Z,94362.00
2023-05-10T04:08:15.156Z,94360.00
2023-05-10T04:09:15.188Z,94358.00
2023-05-10T04:10:15.365Z,94362.00
2023-05-10T04:11:15.282Z,94362.00
2023-05-10T04:12:15.384Z,94360.00
2023-05-10T04:13:15.392Z,94362.00
2023-05-10T04:14:15.457Z,94360.00
2023-05-10T04:15:15.530Z,94364.00
2023-05-10T04:16:15.613Z,94364.00
2023-05-10T04:17:15.717Z,94364.00
2023-05-10T04:18:15.736Z,94366.00
2023-05-10T04:19:15.808Z,94366.00
2023-05-10T04:20:16.180Z,94368.00
2023-05-10T04:21:15.846Z,94366.00
2023-05-10T04:22:15.932Z,94368.00
2023-05-10T04:23:15.979Z,94368.00
2023-05-10T04:24:16.027Z,94364.00
2023-05-10T04:25:16.125Z,94366.00
2023-05-10T04:26:16.156Z,94366.00
2023-05-10T04:27:16.206Z,94364.00
2023-05-10T04:28:16.202Z,94370.00
2023-05-10T04:29:16.309Z,94370.00
2023-05-10T04:30:16.409Z,94348.00
2023-05-10T04:31:16.315Z,94346.00
2023-05-10T04:32:16.349Z,94350.00
2023-05-10T04:33:16.447Z,94350.00
2023-05-10T04:34:16.353Z,94348.00
2023-05-10T04:35:16.417Z,94346.00
2023-05-10T04:36:16.468Z,94346.00
2023-05-10T04:37:16.469Z,94346.00
2023-05-10T04:38:16.489Z,94344.00
2023-05-10T04:39:16.491Z,94344.00
2023-05-10T04:40:16.592Z,94342.00
2023-05-10T04:41:16.446Z,94342.00
2023-05-10T04:42:16.477Z,94342.00
2023-05-10T04:43:16.478Z,94346.00
2023-05-10T04:44:16.476Z,94348.00
2023-05-10T04:45:16.492Z,94346.00
2023-05-10T04:46:16.571Z,94346.00
2023-05-10T04:47:16.500Z,94352.00
2023-05-10T04:48:16.543Z,94348.00
2023-05-10T04:49:16.575Z,94348.00
2023-05-10T04:50:16.822Z,94350.00
2023-05-10T04:51:16.670Z,94338.00
2023-05-10T04:52:16.669Z,94309.00
2023-05-10T04:53:16.760Z,94309.00
2023-05-10T04:54:16.787Z,94311.00
2023-05-10T04:55:16.838Z,94313.00
2023-05-10T04:56:16.858Z,94352.00
2023-05-10T04:57:16.916Z,94350.00
2023-05-10T04:58:16.983Z,94350.00
2023-05-10T04:59:16.966Z,94352.00
2023-05-10T05:00:17.313Z,94352.00
2023-05-10T05:01:17.079Z,94354.00
2023-05-10T05:02:17.046Z,94356.00
2023-05-10T05:03:17.113Z,94352.00
2023-05-10T05:04:17.032Z,94358.00
2023-05-10T05:05:17.004Z,94356.00
2023-05-10T05:06:17.004Z,94356.00
2023-05-10T05:07:17.010Z,94362.00
2023-05-10T05:08:17.050Z,94362.00
2023-05-10T05:09:17.058Z,94364.00
2023-05-10T05:10:17.182Z,94366.00
2023-05-10T05:11:17.067Z,94366.00
2023-05-10T05:12:17.067Z,94370.00
2023-05-10T05:13:17.094Z,94370.00
2023-05-10T05:14:17.097Z,94370.00
2023-05-10T05:15:17.100Z,94370.00
2023-05-10T05:16:17.185Z,94370.00
2023-05-10T05:17:17.130Z,94377.00
2023-05-10T05:18:17.177Z,94379.00
2023-05-10T05:19:17.158Z,94383.00
2023-05-10T05:20:17.480Z,94379.00
2023-05-10T05:21:17.194Z,94381.00
2023-05-10T05:22:18.352Z,94381.00
2023-05-10T05:23:17.202Z,94381.00
2023-05-10T05:24:17.223Z,94383.00
2023-05-10T05:25:17.276Z,94379.00
2023-05-10T05:26:17.244Z,94383.00
2023-05-10T05:27:17.263Z,94383.00
2023-05-10T05:28:17.286Z,94387.00
2023-05-10T05:29:17.365Z,94385.00
2023-05-10T05:30:17.459Z,94385.00
2023-05-10T05:31:17.382Z,94387.00
2023-05-10T05:32:17.364Z,94389.00
2023-05-10T05:33:17.391Z,94389.00
2023-05-10T05:34:17.440Z,94391.00
2023-05-10T05:35:17.647Z,94391.00
2023-05-10T05:36:17.465Z,94391.00
2023-05-10T05:37:17.464Z,94393.00
2023-05-10T05:38:17.456Z,94391.00
2023-05-10T05:39:17.515Z,94395.00
2023-05-10T05:40:17.512Z,94391.00
2023-05-10T05:41:17.536Z,94391.00
2023-05-10T05:42:17.535Z,94395.00
2023-05-10T05:43:17.559Z,94391.00
2023-05-10T05:44:17.563Z,94395.00
2023-05-10T05:45:17.865Z,94395.00
2023-05-10T05:46:17.669Z,94417.00
2023-05-10T05:47:17.635Z,94417.00
2023-05-10T05:48:17.668Z,94419.00
2023-05-10T05:49:17.639Z,94419.00
2023-05-10T05:50:17.646Z,94417.00
2023-05-10T05:51:17.693Z,94419.00
2023-05-10T05:52:17.708Z,94424.00
2023-05-10T05:53:17.665Z,94424.00
2023-05-10T05:54:17.842Z,94424.00
2023-05-10T05:55:18.039Z,94423.00
2023-05-10T05:56:17.850Z,94423.00
2023-05-10T05:57:17.896Z,94423.00
2023-05-10T05:58:17.936Z,94423.00
2023-05-10T05:59:17.909Z,94423.00
2023-05-10T06:00:17.975Z,94423.00
2023-05-10T06:01:18.216Z,94423.00
2023-05-10T06:02:18.123Z,94423.00
2023-05-10T06:03:18.270Z,94423.00
2023-05-10T06:04:18.425Z,94424.00
2023-05-10T06:05:18.355Z,94424.00
2023-05-10T06:06:18.713Z,94423.00
2023-05-10T06:07:18.375Z,94423.00
2023-05-10T06:08:18.444Z,94423.00
2023-05-10T06:09:18.696Z,94421.00
2023-05-10T06:10:18.544Z,94423.00
2023-05-10T06:11:18.673Z,94424.00
2023-05-10T06:12:18.610Z,94423.00
2023-05-10T06:13:18.707Z,94426.00
2023-05-10T06:14:18.733Z,94424.00
2023-05-10T06:15:18.967Z,94426.00
2023-05-10T06:16:18.855Z,94426.00
2023-05-10T06:17:18.844Z,94428.00
2023-05-10T06:18:18.879Z,94430.00
2023-05-10T06:19:18.868Z,94428.00
2023-05-10T06:20:18.982Z,94430.00
2023-05-10T06:21:18.977Z,94432.00
2023-05-10T06:22:19.051Z,94432.00
2023-05-10T06:23:19.045Z,94436.00
2023-05-10T06:24:19.047Z,94436.00
2023-05-10T06:25:19.281Z,94440.00
2023-05-10T06:26:19.131Z,94438.00
2023-05-10T06:27:19.173Z,94442.00
2023-05-10T06:28:19.698Z,94440.00
2023-05-10T06:29:19.193Z,94442.00
2023-05-10T06:30:19.261Z,94440.00
2023-05-10T06:31:19.276Z,94442.00
2023-05-10T06:32:19.267Z,94446.00
2023-05-10T06:33:19.316Z,94442.00
2023-05-10T06:34:19.330Z,94444.00
2023-05-10T06:35:19.506Z,94440.00
2023-05-10T06:36:19.339Z,94452.00
2023-05-10T06:37:19.342Z,94423.00
2023-05-10T06:38:19.421Z,94421.00
2023-05-10T06:39:21.252Z,94419.00
2023-05-10T06:40:19.368Z,94419.00
2023-05-10T06:41:19.421Z,94421.00
2023-05-10T06:42:19.487Z,94417.00
2023-05-10T06:43:19.638Z,94421.00
2023-05-10T06:44:19.697Z,94421.00
2023-05-10T06:45:19.966Z,94424.00
2023-05-10T06:46:19.874Z,94424.00
2023-05-10T06:47:19.682Z,94424.00
2023-05-10T06:48:19.693Z,94424.00
2023-05-10T06:49:20.198Z,94421.00
2023-05-10T06:50:19.740Z,94419.00
2023-05-10T06:51:19.748Z,94442.00
2023-05-10T06:52:19.826Z,94440.00
2023-05-10T06:53:19.699Z,94438.00
2023-05-10T06:54:19.711Z,94438.00
2023-05-10T06:55:19.815Z,94440.00
2023-05-10T06:56:19.779Z,94440.00
2023-05-10T06:57:31.153Z,94438.00
2023-05-10T06:58:22.667Z,94442.00
2023-05-10T06:59:19.917Z,94442.00
2023-05-10T07:00:20.273Z,94442.00
2023-05-10T07:01:20.039Z,94440.00
2023-05-10T07:02:19.843Z,94440.00
2023-05-10T07:03:20.801Z,94440.00
2023-05-10T07:04:19.899Z,94421.00
2023-05-10T07:05:20.086Z,94419.00
2023-05-10T07:06:32.313Z,94417.00
2023-05-10T07:07:20.771Z,94421.00
2023-05-10T07:08:20.171Z,94423.00
2023-05-10T07:09:20.181Z,94423.00
2023-05-10T07:10:20.198Z,94421.00
2023-05-10T07:11:19.801Z,94421.00
2023-05-10T07:12:19.800Z,94421.00
2023-05-10T07:13:19.890Z,94419.00
2023-05-10T07:14:19.763Z,94419.00
2023-05-10T07:15:20.224Z,94419.00
2023-05-10T07:16:19.743Z,94417.00
2023-05-10T07:17:19.789Z,94417.00
2023-05-10T07:18:19.766Z,94419.00
2023-05-10T07:19:19.778Z,94415.00
2023-05-10T07:20:19.736Z,94419.00
2023-05-10T07:21:19.757Z,94421.00
2023-05-10T07:22:19.727Z,94421.00
2023-05-10T07:23:19.710Z,94421.00
2023-05-10T07:24:19.673Z,94423.00
2023-05-10T07:25:19.713Z,94424.00
2023-05-10T07:26:19.715Z,94424.00
2023-05-10T07:27:19.739Z,94426.00
2023-05-10T07:28:19.651Z,94426.00
2023-05-10T07:29:19.688Z,94426.00
2023-05-10T07:30:19.747Z,94428.00
2023-05-10T07:31:19.686Z,94426.00
2023-05-10T07:32:19.661Z,94424.00
2023-05-10T07:33:19.815Z,94424.00
2023-05-10T07:34:19.659Z,94424.00
2023-05-10T07:35:19.706Z,94423.00
2023-05-10T07:36:19.596Z,94419.00
2023-05-10T07:37:19.612Z,94430.00
2023-05-10T07:38:19.773Z,94423.00
2023-05-10T07:39:26.486Z,94423.00
2023-05-10T07:40:20.703Z,94421.00
2023-05-10T07:41:19.737Z,94421.00
2023-05-10T07:42:19.688Z,94423.00
2023-05-10T07:43:19.653Z,94424.00
2023-05-10T07:44:19.672Z,94424.00
2023-05-10T07:45:19.669Z,94428.00
2023-05-10T07:46:19.688Z,94426.00
2023-05-10T07:47:19.627Z,94428.00
2023-05-10T07:48:19.629Z,94428.00
2023-05-10T07:49:19.641Z,94430.00
2023-05-10T07:50:19.599Z,94428.00
2023-05-10T07:51:19.647Z,94432.00
2023-05-10T07:52:21.312Z,94436.00
2023-05-10T07:53:19.668Z,94460.00
2023-05-10T07:54:19.629Z,94462.00
2023-05-10T07:55:19.639Z,94462.00
2023-05-10T07:56:19.619Z,94460.00
2023-05-10T07:57:19.636Z,94462.00
2023-05-10T07:58:19.644Z,94460.00
2023-05-10T07:59:19.600Z,94460.00
2023-05-10T08:00:19.696Z,94462.00
2023-05-10T08:01:19.620Z,94458.00
2023-05-10T08:02:19.805Z,94436.00
2023-05-10T08:03:19.774Z,94434.00
2023-05-10T08:04:19.645Z,94436.00
2023-05-10T08:05:19.765Z,94434.00
2023-05-10T08:06:19.582Z,94436.00
2023-05-10T08:07:19.558Z,94436.00
2023-05-10T08:08:19.548Z,94440.00
2023-05-10T08:09:19.526Z,94442.00
2023-05-10T08:10:19.521Z,94444.00
2023-05-10T08:11:19.546Z,94444.00
2023-05-10T08:12:19.524Z,94444.00
2023-05-10T08:13:19.910Z,94446.00
2023-05-10T08:14:19.536Z,94446.00
2023-05-10T08:15:19.659Z,94444.00
2023-05-10T08:16:19.620Z,94450.00
2023-05-10T08:17:20.271Z,94448.00
2023-05-10T08:18:21.945Z,94446.00
2023-05-10T08:19:19.482Z,94448.00
2023-05-10T08:20:19.505Z,94450.00
2023-05-10T08:21:19.564Z,94450.00
2023-05-10T08:22:19.457Z,94446.00
2023-05-10T08:23:19.524Z,94471.00
2023-05-10T08:24:19.471Z,94442.00
2023-05-10T08:25:19.854Z,94446.00
2023-05-10T08:26:19.458Z,94446.00
2023-05-10T08:27:19.465Z,94444.00
2023-05-10T08:28:19.489Z,94446.00
2023-05-10T08:29:19.389Z,94448.00
2023-05-10T08:30:19.487Z,94452.00
2023-05-10T08:31:19.528Z,94452.00
2023-05-10T08:32:19.577Z,94454.00
2023-05-10T08:33:19.540Z,94454.00
2023-05-10T08:34:19.383Z,94456.00
2023-05-10T08:35:19.370Z,94454.00
2023-05-10T08:36:19.371Z,94456.00
2023-05-10T08:37:19.344Z,94458.00
2023-05-10T08:38:19.351Z,94458.00
2023-05-10T08:39:29.805Z,94454.00
2023-05-10T08:40:20.383Z,94458.00
2023-05-10T08:41:19.311Z,94462.00
2023-05-10T08:42:19.309Z,94464.00
2023-05-10T08:43:19.347Z,94464.00
2023-05-10T08:44:19.717Z,94466.00
2023-05-10T08:45:19.549Z,94468.00
2023-05-10T08:46:19.320Z,94466.00
2023-05-10T08:47:19.486Z,94462.00
2023-05-10T08:48:19.340Z,94466.00
2023-05-10T08:49:19.389Z,94464.00
2023-05-10T08:50:20.639Z,94468.00
2023-05-10T08:51:19.774Z,94473.00
2023-05-10T08:52:19.660Z,94470.00
2023-05-10T08:53:19.505Z,94470.00
2023-05-10T08:54:19.541Z,94468.00
2023-05-10T08:55:19.586Z,94471.00
2023-05-10T08:56:19.695Z,94473.00
2023-05-10T08:57:19.709Z,94473.00
2023-05-10T08:58:19.811Z,94491.00
2023-05-10T08:59:19.621Z,94491.00
2023-05-10T09:00:19.813Z,94491.00
2023-05-10T09:01:19.646Z,94491.00
2023-05-10T09:02:19.674Z,94493.00
2023-05-10T09:03:19.786Z,94493.00
2023-05-10T09:04:19.880Z,94497.00
2023-05-10T09:05:19.974Z,94497.00
2023-05-10T09:06:19.658Z,94497.00
2023-05-10T09:07:19.654Z,94499.00
2023-05-10T09:08:19.759Z,94495.00
2023-05-10T09:09:19.685Z,94499.00
2023-05-10T09:10:19.701Z,94497.00
2023-05-10T09:11:19.689Z,94483.00
2023-05-10T09:12:19.745Z,94495.00
2023-05-10T09:13:19.750Z,94495.00
2023-05-10T09:14:19.818Z,94497.00
2023-05-10T09:15:19.992Z,94501.00
2023-05-10T09:16:22.216Z,94501.00
2023-05-10T09:17:19.967Z,94501.00
2023-05-10T09:18:20.085Z,94503.00
2023-05-10T09:19:19.879Z,94503.00
2023-05-10T09:20:19.877Z,94503.00
2023-05-10T09:21:19.933Z,94489.00
2023-05-10T09:22:19.897Z,94487.00
2023-05-10T09:23:19.952Z,94485.00
2023-05-10T09:24:19.974Z,94485.00
2023-05-10T09:25:19.973Z,94505.00
2023-05-10T09:26:19.921Z,94503.00
2023-05-10T09:27:19.839Z,94503.00
2023-05-10T09:28:19.794Z,94503.00
2023-05-10T09:29:19.802Z,94503.00
2023-05-10T09:30:19.809Z,94489.00
2023-05-10T09:31:19.869Z,94487.00
2023-05-10T09:32:19.766Z,94489.00
2023-05-10T09:33:19.841Z,94489.00
2023-05-10T09:34:19.802Z,94487.00
2023-05-10T09:35:19.788Z,94487.00
2023-05-10T09:36:19.811Z,94507.00
2023-05-10T09:37:19.754Z,94507.00
2023-05-10T09:38:20.336Z,94507.00
2023-05-10T09:39:19.738Z,94507.00
2023-05-10T09:40:19.731Z,94507.00
2023-05-10T09:41:19.745Z,94503.00
2023-05-10T09:42:19.731Z,94503.00
2023-05-10T09:43:19.723Z,94503.00
2023-05-10T09:44:19.702Z,94503.00
2023-05-10T09:45:19.710Z,94499.00
2023-05-10T09:46:19.699Z,94503.00
2023-05-10T09:47:19.690Z,94499.00
2023-05-10T09:48:19.751Z,94501.00
2023-05-10T09:49:19.769Z,94499.00
2023-05-10T09:50:19.685Z,94499.00
2023-05-10T09:51:19.660Z,94499.00
2023-05-10T09:52:19.657Z,94479.00
2023-05-10T09:53:19.677Z,94481.00
2023-05-10T09:54:19.633Z,94479.00
2023-05-10T09:55:19.622Z,94479.00
2023-05-10T09:56:19.654Z,94479.00
2023-05-10T09:57:20.056Z,94481.00
2023-05-10T09:58:20.220Z,94483.00
2023-05-10T09:59:19.612Z,94481.00
2023-05-10T10:00:19.618Z,94481.00
2023-05-10T10:01:19.737Z,94481.00
2023-05-10T10:02:19.677Z,94479.00
2023-05-10T10:03:19.728Z,94479.00
2023-05-10T10:04:20.239Z,94485.00
2023-05-10T10:05:19.859Z,94485.00
2023-05-10T10:06:29.546Z,94483.00
2023-05-10T10:07:20.908Z,94483.00
2023-05-10T10:08:20.418Z,94481.00
2023-05-10T10:09:20.002Z,94483.00
2023-05-10T10:10:19.936Z,94483.00
2023-05-10T10:11:19.829Z,94481.00
2023-05-10T10:12:19.901Z,94483.00
2023-05-10T10:13:19.850Z,94481.00
2023-05-10T10:14:25.282Z,94483.00
2023-05-10T10:15:19.999Z,94485.00
2023-05-10T10:16:19.923Z,94483.00
2023-05-10T10:17:19.895Z,94487.00
2023-05-10T10:18:19.929Z,94485.00
2023-05-10T10:19:19.956Z,94489.00
2023-05-10T10:20:20.184Z,94489.00
2023-05-10T10:21:20.033Z,94491.00
2023-05-10T10:22:20.018Z,94489.00
2023-05-10T10:23:20.122Z,94487.00
2023-05-10T10:24:20.345Z,94485.00
2023-05-10T10:25:20.248Z,94487.00
2023-05-10T10:26:20.208Z,94487.00
2023-05-10T10:27:20.306Z,94489.00
2023-05-10T10:28:22.282Z,94491.00
2023-05-10T10:29:20.443Z,94491.00
2023-05-10T10:30:20.893Z,94491.00
2023-05-10T10:31:20.537Z,94489.00
2023-05-10T10:32:20.478Z,94489.00
2023-05-10T10:33:28.362Z,94493.00
2023-05-10T10:34:21.479Z,94491.00
2023-05-10T10:35:20.785Z,94491.00
2023-05-10T10:36:20.515Z,94489.00
2023-05-10T10:37:20.507Z,94489.00
2023-05-10T10:38:20.465Z,94485.00
2023-05-10T10:39:20.432Z,94489.00
2023-05-10T10:40:20.756Z,94487.00
2023-05-10T10:41:20.494Z,94487.00
2023-05-10T10:42:20.472Z,94487.00
2023-05-10T10:43:20.465Z,94489.00
2023-05-10T10:44:20.771Z,94487.00
2023-05-10T10:45:20.484Z,94487.00
2023-05-10T10:46:20.459Z,94489.00
2023-05-10T10:47:20.453Z,94487.00
2023-05-10T10:48:20.488Z,94485.00
2023-05-10T10:49:20.581Z,94489.00
2023-05-10T10:50:20.520Z,94487.00
2023-05-10T10:51:20.522Z,94503.00
2023-05-10T10:52:20.618Z,94501.00
2023-05-10T10:53:20.566Z,94485.00
2023-05-10T10:54:20.550Z,94483.00
2023-05-10T10:55:20.708Z,94485.00
2023-05-10T10:56:20.633Z,94481.00
2023-05-10T10:57:20.573Z,94483.00
2023-05-10T10:58:20.589Z,94483.00
2023-05-10T10:59:20.595Z,94483.00
2023-05-10T11:00:20.578Z,94483.00
2023-05-10T11:01:20.737Z,94483.00
2023-05-10T11:02:20.655Z,94483.00
2023-05-10T11:03:20.704Z,94481.00
2023-05-10T11:04:20.795Z,94481.00
2023-05-10T11:05:20.784Z,94481.00
2023-05-10T11:06:20.892Z,94481.00
2023-05-10T11:07:21.009Z,94481.00
2023-05-10T11:08:21.337Z,94479.00
2023-05-10T11:09:21.011Z,94481.00
2023-05-10T11:10:21.042Z,94481.00
2023-05-10T11:11:21.315Z,94481.00
2023-05-10T11:12:21.137Z,94477.00
2023-05-10T11:13:21.254Z,94475.00
2023-05-10T11:14:21.308Z,94473.00
2023-05-10T11:15:21.325Z,94473.00
2023-05-10T11:16:21.414Z,94471.00
2023-05-10T11:17:21.776Z,94471.00
2023-05-10T11:18:22.272Z,94475.00
2023-05-10T11:19:21.404Z,94470.00
2023-05-10T11:20:21.388Z,94470.00
2023-05-10T11:21:21.438Z,94470.00
2023-05-10T11:22:21.492Z,94471.00
2023-05-10T11:23:21.542Z,94471.00
2023-05-10T11:24:21.573Z,94468.00
2023-05-10T11:25:21.569Z,94471.00
2023-05-10T11:26:21.733Z,94471.00
2023-05-10T11:27:21.601Z,94473.00
2023-05-10T11:28:21.575Z,94473.00
2023-05-10T11:29:21.722Z,94473.00
2023-05-10T11:30:21.655Z,94475.00
2023-05-10T11:31:21.826Z,94471.00
2023-05-10T11:32:21.712Z,94475.00
2023-05-10T11:33:21.832Z,94473.00
2023-05-10T11:34:21.791Z,94473.00
2023-05-10T11:35:21.915Z,94470.00
2023-05-10T11:36:21.914Z,94470.00
2023-05-10T11:37:21.952Z,94471.00
2023-05-10T11:38:21.953Z,94471.00
2023-05-10T11:39:22.030Z,94473.00
2023-05-10T11:40:22.030Z,94470.00
2023-05-10T11:41:22.043Z,94471.00
2023-05-10T11:42:22.061Z,94471.00
2023-05-10T11:43:22.116Z,94470.00
2023-05-10T11:44:22.106Z,94470.00